sensor_id;sensor_type;location;lat;lon;timestamp;pressure;altitude;pressure_sealevel;temperature;humidity
54038;BME280;39954;48.844;9.726;2023-07-20T00:00:59;95927.81;;;16.78;92.41
54038;BME280;39954;48.844;9.726;2023-07-20T00:02:02;95923.50;;;16.77;91.84
54038;BME280;39954;48.844;9.726;2023-07-20T00:03:11;95928.31;;;16.72;92.36
54038;BME280;39954;48.844;9.726;2023-07-20T00:04:22;95935.72;;;16.67;93.54
54038;BME280;39954;48.844;9.726;2023-07-20T00:05:27;95928.56;;;16.69;92.50
54038;BME280;39954;48.844;9.726;2023-07-20T00:06:30;95931.63;;;16.74;90.93
54038;BME280;39954;48.844;9.726;2023-07-20T00:07:36;95927.81;;;16.78;90.17
54038;BME280;39954;48.844;9.726;2023-07-20T00:08:39;95931.06;;;16.71;88.48
54038;BME280;39954;48.844;9.726;2023-07-20T00:09:44;95938.72;;;16.63;89.01
54038;BME280;39954;48.844;9.726;2023-07-20T00:10:47;95933.38;;;16.64;88.42
54038;BME280;39954;48.844;9.726;2023-07-20T00:11:53;95937.53;;;16.67;88.85
54038;BME280;39954;48.844;9.726;2023-07-20T00:12:56;95936.63;;;16.77;84.56
54038;BME280;39954;48.844;9.726;2023-07-20T00:14:02;95936.31;;;16.71;84.55
54038;BME280;39954;48.844;9.726;2023-07-20T00:15:06;95937.81;;;16.85;81.82
54038;BME280;39954;48.844;9.726;2023-07-20T00:16:12;95939.97;;;16.80;79.53
54038;BME280;39954;48.844;9.726;2023-07-20T00:17:15;95934.88;;;16.78;79.09
54038;BME280;39954;48.844;9.726;2023-07-20T00:18:21;95936.88;;;16.74;79.12
54038;BME280;39954;48.844;9.726;2023-07-20T00:19:27;95933.69;;;16.71;78.36
54038;BME280;39954;48.844;9.726;2023-07-20T00:20:34;95928.81;;;16.66;78.21
54038;BME280;39954;48.844;9.726;2023-07-20T00:21:37;95932.59;;;16.73;77.43
54038;BME280;39954;48.844;9.726;2023-07-20T00:22:44;95934.50;;;16.71;76.90
54038;BME280;39954;48.844;9.726;2023-07-20T00:23:47;95927.16;;;16.65;77.39
54038;BME280;39954;48.844;9.726;2023-07-20T00:24:54;95939.00;;;16.60;77.72
54038;BME280;39954;48.844;9.726;2023-07-20T00:25:59;95942.06;;;16.65;76.50
54038;BME280;39954;48.844;9.726;2023-07-20T00:27:05;95932.38;;;16.76;75.56
54038;BME280;39954;48.844;9.726;2023-07-20T00:28:08;95939.84;;;16.81;75.11
54038;BME280;39954;48.844;9.726;2023-07-20T00:29:13;95930.56;;;16.77;74.33
54038;BME280;39954;48.844;9.726;2023-07-20T00:30:16;95938.06;;;16.82;74.68
54038;BME280;39954;48.844;9.726;2023-07-20T00:31:36;95939.72;;;16.83;73.90
54038;BME280;39954;48.844;9.726;2023-07-20T00:32:42;95933.06;;;16.78;73.71
54038;BME280;39954;48.844;9.726;2023-07-20T00:33:45;95938.50;;;16.87;73.37
54038;BME280;39954;48.844;9.726;2023-07-20T00:34:54;95931.16;;;16.81;73.26
54038;BME280;39954;48.844;9.726;2023-07-20T00:35:57;95929.94;;;16.85;73.75
54038;BME280;39954;48.844;9.726;2023-07-20T00:37:00;95935.28;;;16.83;73.32
54038;BME280;39954;48.844;9.726;2023-07-20T00:38:05;95924.50;;;16.76;74.27
54038;BME280;39954;48.844;9.726;2023-07-20T00:39:08;95929.50;;;16.68;75.14
54038;BME280;39954;48.844;9.726;2023-07-20T00:40:11;95932.19;;;16.57;76.07
54038;BME280;39954;48.844;9.726;2023-07-20T00:41:17;95933.94;;;16.47;77.55
54038;BME280;39954;48.844;9.726;2023-07-20T00:42:20;95923.69;;;16.44;78.59
54038;BME280;39954;48.844;9.726;2023-07-20T00:43:26;95931.38;;;16.36;78.97
54038;BME280;39954;48.844;9.726;2023-07-20T00:44:29;95932.13;;;16.26;80.43
54038;BME280;39954;48.844;9.726;2023-07-20T00:45:36;95929.22;;;16.29;80.37
54038;BME280;39954;48.844;9.726;2023-07-20T00:46:41;95928.56;;;16.27;81.01
54038;BME280;39954;48.844;9.726;2023-07-20T00:47:45;95934.16;;;16.23;81.61
54038;BME280;39954;48.844;9.726;2023-07-20T00:48:51;95929.03;;;16.21;82.68
54038;BME280;39954;48.844;9.726;2023-07-20T00:49:58;95933.13;;;16.14;83.34
54038;BME280;39954;48.844;9.726;2023-07-20T00:51:04;95934.09;;;16.02;84.60
54038;BME280;39954;48.844;9.726;2023-07-20T00:52:08;95937.38;;;15.94;86.34
54038;BME280;39954;48.844;9.726;2023-07-20T00:53:16;95935.94;;;15.90;87.65
54038;BME280;39954;48.844;9.726;2023-07-20T00:54:19;95935.09;;;15.89;89.16
54038;BME280;39954;48.844;9.726;2023-07-20T00:55:26;95935.13;;;15.78;89.83
54038;BME280;39954;48.844;9.726;2023-07-20T00:56:31;95930.84;;;15.77;90.75
54038;BME280;39954;48.844;9.726;2023-07-20T00:57:36;95930.13;;;15.64;91.36
54038;BME280;39954;48.844;9.726;2023-07-20T00:58:39;95936.69;;;15.58;93.11
54038;BME280;39954;48.844;9.726;2023-07-20T00:59:45;95938.97;;;15.63;93.42
54038;BME280;39954;48.844;9.726;2023-07-20T01:00:48;95943.00;;;15.56;94.85
54038;BME280;39954;48.844;9.726;2023-07-20T01:01:53;95945.28;;;15.60;95.22
54038;BME280;39954;48.844;9.726;2023-07-20T01:02:56;95939.91;;;15.51;95.70
54038;BME280;39954;48.844;9.726;2023-07-20T01:04:02;95944.81;;;15.44;97.57
54038;BME280;39954;48.844;9.726;2023-07-20T01:05:08;95951.34;;;15.50;97.13
54038;BME280;39954;48.844;9.726;2023-07-20T01:06:25;95944.31;;;15.61;95.81
54038;BME280;39954;48.844;9.726;2023-07-20T01:07:34;95945.97;;;15.62;95.25
54038;BME280;39954;48.844;9.726;2023-07-20T01:08:55;95947.66;;;15.63;95.49
54038;BME280;39954;48.844;9.726;2023-07-20T01:10:05;95939.66;;;15.54;96.81
54038;BME280;39954;48.844;9.726;2023-07-20T01:11:22;95948.00;;;15.48;98.29
54038;BME280;39954;48.844;9.726;2023-07-20T01:12:30;95948.16;;;15.46;98.02
54038;BME280;39954;48.844;9.726;2023-07-20T01:13:39;95950.75;;;15.57;97.10
54038;BME280;39954;48.844;9.726;2023-07-20T01:14:42;95950.38;;;15.51;97.22
54038;BME280;39954;48.844;9.726;2023-07-20T01:15:49;95948.00;;;15.59;95.73
54038;BME280;39954;48.844;9.726;2023-07-20T01:16:53;95940.72;;;15.62;95.77
54038;BME280;39954;48.844;9.726;2023-07-20T01:17:58;95943.75;;;15.69;94.53
54038;BME280;39954;48.844;9.726;2023-07-20T01:19:03;95945.97;;;15.62;95.22
54038;BME280;39954;48.844;9.726;2023-07-20T01:20:15;95943.97;;;15.55;96.06
54038;BME280;39954;48.844;9.726;2023-07-20T01:21:26;95939.88;;;15.62;95.82
54038;BME280;39954;48.844;9.726;2023-07-20T01:22:54;95948.00;;;15.59;95.87
54038;BME280;39954;48.844;9.726;2023-07-20T01:24:40;95946.34;;;15.58;96.00
54038;BME280;39954;48.844;9.726;2023-07-20T01:26:09;95943.72;;;15.58;95.79
54038;BME280;39954;48.844;9.726;2023-07-20T01:27:31;95948.00;;;15.59;95.74
54038;BME280;39954;48.844;9.726;2023-07-20T01:30:28;95951.56;;;15.58;95.46
54038;BME280;39954;48.844;9.726;2023-07-20T01:31:44;95949.91;;;15.57;96.68
54038;BME280;39954;48.844;9.726;2023-07-20T01:32:47;95944.31;;;15.50;96.63
54038;BME280;39954;48.844;9.726;2023-07-20T01:33:56;95948.25;;;15.56;97.42
54038;BME280;39954;48.844;9.726;2023-07-20T01:35:00;95948.00;;;15.48;96.81
54038;BME280;39954;48.844;9.726;2023-07-20T01:36:08;95948.97;;;15.47;96.93
54038;BME280;39954;48.844;9.726;2023-07-20T01:37:13;95948.00;;;15.36;98.39
54038;BME280;39954;48.844;9.726;2023-07-20T01:38:19;95944.69;;;15.34;98.05
54038;BME280;39954;48.844;9.726;2023-07-20T01:39:25;95941.81;;;15.37;99.20
54038;BME280;39954;48.844;9.726;2023-07-20T01:40:32;95943.97;;;15.43;98.25
54038;BME280;39954;48.844;9.726;2023-07-20T01:41:38;95945.63;;;15.44;97.79
54038;BME280;39954;48.844;9.726;2023-07-20T01:42:46;95953.59;;;15.43;98.08
54038;BME280;39954;48.844;9.726;2023-07-20T01:43:49;95944.91;;;15.31;98.63
54038;BME280;39954;48.844;9.726;2023-07-20T01:44:55;95945.16;;;15.28;100.00
54038;BME280;39954;48.844;9.726;2023-07-20T01:45:58;95949.22;;;15.32;99.20
54038;BME280;39954;48.844;9.726;2023-07-20T01:47:06;95944.44;;;15.37;98.83
54038;BME280;39954;48.844;9.726;2023-07-20T01:48:09;95938.63;;;15.34;98.97
54038;BME280;39954;48.844;9.726;2023-07-20T01:49:15;95945.53;;;15.24;100.00
54038;BME280;39954;48.844;9.726;2023-07-20T01:50:19;95938.50;;;15.24;100.00
54038;BME280;39954;48.844;9.726;2023-07-20T01:51:24;95942.06;;;15.34;99.40
54038;BME280;39954;48.844;9.726;2023-07-20T01:52:27;95944.09;;;15.31;99.52
54038;BME280;39954;48.844;9.726;2023-07-20T01:53:33;95944.69;;;15.34;100.00
54038;BME280;39954;48.844;9.726;2023-07-20T01:54:36;95944.44;;;15.37;100.00
54038;BME280;39954;48.844;9.726;2023-07-20T01:55:42;95947.28;;;15.34;98.89
54038;BME280;39954;48.844;9.726;2023-07-20T01:56:45;95942.53;;;15.28;100.00
54038;BME280;39954;48.844;9.726;2023-07-20T01:57:50;95945.75;;;15.20;100.00
54038;BME280;39954;48.844;9.726;2023-07-20T01:58:53;95945.28;;;15.15;100.00
54038;BME280;39954;48.844;9.726;2023-07-20T01:59:59;95945.75;;;15.09;100.00
54038;BME280;39954;48.844;9.726;2023-07-20T02:01:02;95947.78;;;15.06;100.00
54038;BME280;39954;48.844;9.726;2023-07-20T02:02:11;95942.28;;;15.09;100.00
54038;BME280;39954;48.844;9.726;2023-07-20T02:03:14;95942.88;;;15.01;100.00
54038;BME280;39954;48.844;9.726;2023-07-20T02:04:20;95945.97;;;14.95;100.00
54038;BME280;39954;48.844;9.726;2023-07-20T02:05:23;95949.66;;;14.92;100.00
54038;BME280;39954;48.844;9.726;2023-07-20T02:06:29;95948.59;;;14.95;100.00
54038;BME280;39954;48.844;9.726;2023-07-20T02:07:32;95947.91;;;14.93;100.00
54038;BME280;39954;48.844;9.726;2023-07-20T02:08:35;95955.94;;;14.90;100.00
54038;BME280;39954;48.844;9.726;2023-07-20T02:09:42;95948.72;;;14.82;100.00
54038;BME280;39954;48.844;9.726;2023-07-20T02:10:46;95952.00;;;14.84;100.00
54038;BME280;39954;48.844;9.726;2023-07-20T02:11:52;95955.13;;;14.89;100.00
54038;BME280;39954;48.844;9.726;2023-07-20T02:12:55;95951.34;;;14.93;100.00
54038;BME280;39954;48.844;9.726;2023-07-20T02:14:00;95954.66;;;14.95;100.00
54038;BME280;39954;48.844;9.726;2023-07-20T02:15:04;95949.66;;;14.92;100.00
54038;BME280;39954;48.844;9.726;2023-07-20T02:16:07;95946.09;;;14.82;100.00
54038;BME280;39954;48.844;9.726;2023-07-20T02:17:16;95954.19;;;14.79;100.00
54038;BME280;39954;48.844;9.726;2023-07-20T02:18:19;95953.22;;;14.91;100.00
54038;BME280;39954;48.844;9.726;2023-07-20T02:19:25;95950.38;;;14.83;100.00
54038;BME280;39954;48.844;9.726;2023-07-20T02:20:29;95957.72;;;14.78;100.00
54038;BME280;39954;48.844;9.726;2023-07-20T02:21:34;95954.44;;;14.87;100.00
54038;BME280;39954;48.844;9.726;2023-07-20T02:22:40;95954.28;;;14.89;100.00
54038;BME280;39954;48.844;9.726;2023-07-20T02:23:46;95952.00;;;14.84;100.00
54038;BME280;39954;48.844;9.726;2023-07-20T02:24:50;95949.88;;;14.78;100.00
54038;BME280;39954;48.844;9.726;2023-07-20T02:25:55;95946.53;;;14.65;100.00
54038;BME280;39954;48.844;9.726;2023-07-20T02:26:58;95951.16;;;14.61;100.00
54038;BME280;39954;48.844;9.726;2023-07-20T02:28:04;95950.09;;;14.64;100.00
54038;BME280;39954;48.844;9.726;2023-07-20T02:29:07;95958.94;;;14.50;100.00
54038;BME280;39954;48.844;9.726;2023-07-20T02:30:13;95950.97;;;14.51;100.00
54038;BME280;39954;48.844;9.726;2023-07-20T02:31:18;95952.56;;;14.54;100.00
54038;BME280;39954;48.844;9.726;2023-07-20T02:32:28;95958.09;;;14.49;100.00
54038;BME280;39954;48.844;9.726;2023-07-20T02:33:31;95951.66;;;14.42;100.00
54038;BME280;39954;48.844;9.726;2023-07-20T02:34:37;95951.72;;;14.53;100.00
54038;BME280;39954;48.844;9.726;2023-07-20T02:35:41;95951.66;;;14.42;100.00
54038;BME280;39954;48.844;9.726;2023-07-20T02:36:47;95950.94;;;14.40;100.00
54038;BME280;39954;48.844;9.726;2023-07-20T02:37:50;95957.13;;;14.50;100.00
54038;BME280;39954;48.844;9.726;2023-07-20T02:38:56;95961.28;;;14.42;100.00
54038;BME280;39954;48.844;9.726;2023-07-20T02:39:59;95954.03;;;14.34;100.00
54038;BME280;39954;48.844;9.726;2023-07-20T02:41:07;95958.25;;;14.24;100.00
54038;BME280;39954;48.844;9.726;2023-07-20T02:42:09;95959.75;;;14.15;100.00
54038;BME280;39954;48.844;9.726;2023-07-20T02:43:13;95955.63;;;14.24;100.00
54038;BME280;39954;48.844;9.726;2023-07-20T02:44:18;95959.63;;;14.17;100.00
54038;BME280;39954;48.844;9.726;2023-07-20T02:45:21;95962.81;;;14.09;100.00
54038;BME280;39954;48.844;9.726;2023-07-20T02:46:24;95962.69;;;14.10;100.00
54038;BME280;39954;48.844;9.726;2023-07-20T02:47:35;95961.31;;;14.18;100.00
54038;BME280;39954;48.844;9.726;2023-07-20T02:48:38;95960.81;;;14.13;100.00
54038;BME280;39954;48.844;9.726;2023-07-20T02:49:43;95962.59;;;14.12;100.00
54038;BME280;39954;48.844;9.726;2023-07-20T02:50:46;95960.81;;;14.13;100.00
54038;BME280;39954;48.844;9.726;2023-07-20T02:51:52;95968.66;;;14.13;100.00
54038;BME280;39954;48.844;9.726;2023-07-20T02:52:55;95963.06;;;14.06;100.00
54038;BME280;39954;48.844;9.726;2023-07-20T02:54:01;95966.50;;;14.06;100.00
54038;BME280;39954;48.844;9.726;2023-07-20T02:55:05;95960.34;;;13.95;100.00
54038;BME280;39954;48.844;9.726;2023-07-20T02:56:10;95967.13;;;13.97;100.00
54038;BME280;39954;48.844;9.726;2023-07-20T02:57:13;95964.25;;;13.89;100.00
54038;BME280;39954;48.844;9.726;2023-07-20T02:58:19;95972.28;;;13.86;100.00
54038;BME280;39954;48.844;9.726;2023-07-20T02:59:21;95963.25;;;13.79;100.00
54038;BME280;39954;48.844;9.726;2023-07-20T03:00:28;95968.69;;;13.76;100.00
54038;BME280;39954;48.844;9.726;2023-07-20T03:01:31;95973.41;;;13.71;100.00
54038;BME280;39954;48.844;9.726;2023-07-20T03:02:40;95975.94;;;13.59;100.00
54038;BME280;39954;48.844;9.726;2023-07-20T03:03:43;95974.28;;;13.58;100.00
54038;BME280;39954;48.844;9.726;2023-07-20T03:04:49;95980.97;;;13.50;100.00
54038;BME280;39954;48.844;9.726;2023-07-20T03:05:52;95973.56;;;13.43;100.00
54038;BME280;39954;48.844;9.726;2023-07-20T03:07:00;95976.69;;;13.49;100.00
54038;BME280;39954;48.844;9.726;2023-07-20T03:08:03;95972.22;;;13.38;100.00
54038;BME280;39954;48.844;9.726;2023-07-20T03:09:09;95973.38;;;13.34;100.00
54038;BME280;39954;48.844;9.726;2023-07-20T03:10:12;95975.47;;;13.29;100.00
54038;BME280;39954;48.844;9.726;2023-07-20T03:11:18;95974.75;;;13.27;100.00
54038;BME280;39954;48.844;9.726;2023-07-20T03:12:21;95971.22;;;13.28;100.00
54038;BME280;39954;48.844;9.726;2023-07-20T03:13:27;95982.97;;;13.20;100.00
54038;BME280;39954;48.844;9.726;2023-07-20T03:14:30;95975.56;;;13.14;100.00
54038;BME280;39954;48.844;9.726;2023-07-20T03:15:36;95980.69;;;13.29;100.00
54038;BME280;39954;48.844;9.726;2023-07-20T03:16:39;95977.53;;;13.24;100.00
54038;BME280;39954;48.844;9.726;2023-07-20T03:17:47;95973.25;;;13.23;100.00
54038;BME280;39954;48.844;9.726;2023-07-20T03:18:51;95980.69;;;13.29;100.00
54038;BME280;39954;48.844;9.726;2023-07-20T03:19:57;95978.81;;;13.31;100.00
54038;BME280;39954;48.844;9.726;2023-07-20T03:21:02;95975.03;;;13.22;100.00
54038;BME280;39954;48.844;9.726;2023-07-20T03:22:08;95974.91;;;13.24;100.00
54038;BME280;39954;48.844;9.726;2023-07-20T03:23:11;95984.13;;;13.29;100.00
54038;BME280;39954;48.844;9.726;2023-07-20T03:24:17;95983.69;;;13.23;100.00
54038;BME280;39954;48.844;9.726;2023-07-20T03:25:20;95970.03;;;13.32;100.00
54038;BME280;39954;48.844;9.726;2023-07-20T03:26:29;95979.03;;;13.28;100.00
54038;BME280;39954;48.844;9.726;2023-07-20T03:27:32;95978.69;;;13.19;100.00
54038;BME280;39954;48.844;9.726;2023-07-20T03:28:38;95976.91;;;13.20;100.00
54038;BME280;39954;48.844;9.726;2023-07-20T03:29:42;95977.97;;;13.30;100.00
54038;BME280;39954;48.844;9.726;2023-07-20T03:30:53;95975.47;;;13.29;100.00
54038;BME280;39954;48.844;9.726;2023-07-20T03:31:56;95977.13;;;13.17;100.00
54038;BME280;39954;48.844;9.726;2023-07-20T03:33:04;95982.03;;;13.09;100.00
54038;BME280;39954;48.844;9.726;2023-07-20T03:34:08;95976.28;;;13.04;100.00
54038;BME280;39954;48.844;9.726;2023-07-20T03:35:17;95985.47;;;12.96;100.00
54038;BME280;39954;48.844;9.726;2023-07-20T03:36:20;95980.66;;;12.90;100.00
54038;BME280;39954;48.844;9.726;2023-07-20T03:37:26;95985.47;;;13.09;100.00
54038;BME280;39954;48.844;9.726;2023-07-20T03:38:29;95986.22;;;13.11;100.00
54038;BME280;39954;48.844;9.726;2023-07-20T03:39:35;95984.31;;;13.13;100.00
54038;BME280;39954;48.844;9.726;2023-07-20T03:40:39;95986.63;;;13.05;100.00
54038;BME280;39954;48.844;9.726;2023-07-20T03:41:44;95978.19;;;13.14;100.00
54038;BME280;39954;48.844;9.726;2023-07-20T03:42:47;95984.13;;;13.16;100.00
54038;BME280;39954;48.844;9.726;2023-07-20T03:43:53;95982.22;;;13.18;100.00
54038;BME280;39954;48.844;9.726;2023-07-20T03:44:56;95991.75;;;13.19;100.00
54038;BME280;39954;48.844;9.726;2023-07-20T03:46:02;95982.44;;;13.15;100.00
54038;BME280;39954;48.844;9.726;2023-07-20T03:47:09;95990.69;;;13.09;100.00
54038;BME280;39954;48.844;9.726;2023-07-20T03:48:19;95989.34;;;13.16;100.00
54038;BME280;39954;48.844;9.726;2023-07-20T03:49:22;95985.38;;;13.11;100.00
54038;BME280;39954;48.844;9.726;2023-07-20T03:50:28;95995.81;;;13.11;100.00
54038;BME280;39954;48.844;9.726;2023-07-20T03:51:31;95987.88;;;12.99;100.00
54038;BME280;39954;48.844;9.726;2023-07-20T03:52:36;95996.09;;;12.93;100.00
54038;BME280;39954;48.844;9.726;2023-07-20T03:53:39;95992.34;;;12.85;100.00
54038;BME280;39954;48.844;9.726;2023-07-20T03:54:44;95995.38;;;12.79;100.00
54038;BME280;39954;48.844;9.726;2023-07-20T03:55:49;95998.81;;;12.79;100.00
54038;BME280;39954;48.844;9.726;2023-07-20T03:56:55;95995.38;;;12.79;100.00
54038;BME280;39954;48.844;9.726;2023-07-20T03:57:58;95993.19;;;12.72;100.00
54038;BME280;39954;48.844;9.726;2023-07-20T03:59:04;95995.06;;;12.83;100.00
54038;BME280;39954;48.844;9.726;2023-07-20T04:00:09;95992.22;;;12.73;100.00
54038;BME280;39954;48.844;9.726;2023-07-20T04:01:16;96002.13;;;12.68;100.00
54038;BME280;39954;48.844;9.726;2023-07-20T04:02:20;95994.63;;;12.64;100.00
54038;BME280;39954;48.844;9.726;2023-07-20T04:03:29;95998.59;;;12.69;100.00
54038;BME280;39954;48.844;9.726;2023-07-20T04:04:32;95993.81;;;12.76;100.00
54038;BME280;39954;48.844;9.726;2023-07-20T04:05:37;95995.38;;;12.79;100.00
54038;BME280;39954;48.844;9.726;2023-07-20T04:06:40;95989.88;;;12.83;100.00
54038;BME280;39954;48.844;9.726;2023-07-20T04:07:46;96001.22;;;12.82;100.00
54038;BME280;39954;48.844;9.726;2023-07-20T04:08:49;95999.34;;;12.84;100.00
54038;BME280;39954;48.844;9.726;2023-07-20T04:09:54;96002.47;;;12.89;100.00
54038;BME280;39954;48.844;9.726;2023-07-20T04:10:58;95999.03;;;12.89;100.00
54038;BME280;39954;48.844;9.726;2023-07-20T04:12:01;95998.00;;;12.91;100.00
54038;BME280;39954;48.844;9.726;2023-07-20T04:13:06;96000.50;;;12.93;100.00
54038;BME280;39954;48.844;9.726;2023-07-20T04:14:09;95998.09;;;12.90;100.00
54038;BME280;39954;48.844;9.726;2023-07-20T04:15:15;96000.69;;;12.90;100.00
54038;BME280;39954;48.844;9.726;2023-07-20T04:16:18;96003.41;;;13.01;100.00
54038;BME280;39954;48.844;9.726;2023-07-20T04:17:24;96013.75;;;13.03;100.00
54038;BME280;39954;48.844;9.726;2023-07-20T04:18:30;96011.25;;;13.01;100.00
54038;BME280;39954;48.844;9.726;2023-07-20T04:19:39;96013.66;;;13.04;100.00
54038;BME280;39954;48.844;9.726;2023-07-20T04:20:44;96009.38;;;13.03;100.00
54038;BME280;39954;48.844;9.726;2023-07-20T04:21:50;96013.75;;;13.03;100.00
54038;BME280;39954;48.844;9.726;2023-07-20T04:22:53;96006.16;;;12.99;100.00
54038;BME280;39954;48.844;9.726;2023-07-20T04:23:59;96006.34;;;12.96;100.00
54038;BME280;39954;48.844;9.726;2023-07-20T04:25:03;96012.63;;;12.94;100.00
54038;BME280;39954;48.844;9.726;2023-07-20T04:26:09;96010.00;;;12.94;100.00
54038;BME280;39954;48.844;9.726;2023-07-20T04:27:13;96006.78;;;13.03;100.00
54038;BME280;39954;48.844;9.726;2023-07-20T04:28:23;96006.03;;;13.01;100.00
54038;BME280;39954;48.844;9.726;2023-07-20T04:29:27;96006.78;;;13.03;100.00
54038;BME280;39954;48.844;9.726;2023-07-20T04:30:33;96005.09;;;13.02;100.00
54038;BME280;39954;48.844;9.726;2023-07-20T04:31:39;96010.13;;;13.05;100.00
54038;BME280;39954;48.844;9.726;2023-07-20T04:32:44;96006.03;;;13.14;100.00
54038;BME280;39954;48.844;9.726;2023-07-20T04:33:51;96013.88;;;13.14;100.00
54038;BME280;39954;48.844;9.726;2023-07-20T04:34:57;96011.34;;;13.12;100.00
54038;BME280;39954;48.844;9.726;2023-07-20T04:36:00;96010.63;;;13.36;100.00
54038;BME280;39954;48.844;9.726;2023-07-20T04:37:06;96010.31;;;13.40;100.00
54038;BME280;39954;48.844;9.726;2023-07-20T04:38:09;96010.53;;;13.50;100.00
54038;BME280;39954;48.844;9.726;2023-07-20T04:39:17;96017.84;;;13.45;100.00
54038;BME280;39954;48.844;9.726;2023-07-20T04:40:33;96018.38;;;13.50;100.00
54038;BME280;39954;48.844;9.726;2023-07-20T04:41:38;96014.19;;;13.48;100.00
54038;BME280;39954;48.844;9.726;2023-07-20T04:42:41;96015.97;;;13.47;100.00
54038;BME280;39954;48.844;9.726;2023-07-20T04:43:47;96019.94;;;13.53;100.00
54038;BME280;39954;48.844;9.726;2023-07-20T04:44:55;96013.84;;;13.52;100.00
54038;BME280;39954;48.844;9.726;2023-07-20T04:46:00;96019.72;;;13.56;100.00
54038;BME280;39954;48.844;9.726;2023-07-20T04:47:06;96016.53;;;13.63;100.00
54038;BME280;39954;48.844;9.726;2023-07-20T04:48:14;96008.00;;;13.61;100.00
54038;BME280;39954;48.844;9.726;2023-07-20T04:49:20;96009.22;;;13.69;100.00
54038;BME280;39954;48.844;9.726;2023-07-20T04:50:26;96026.16;;;13.76;100.00
54038;BME280;39954;48.844;9.726;2023-07-20T04:51:29;96011.91;;;13.80;100.00
54038;BME280;39954;48.844;9.726;2023-07-20T04:52:34;96008.38;;;13.81;100.00
54038;BME280;39954;48.844;9.726;2023-07-20T04:53:44;96018.63;;;13.84;100.00
54038;BME280;39954;48.844;9.726;2023-07-20T04:54:49;96007.13;;;13.86;100.00
54038;BME280;39954;48.844;9.726;2023-07-20T04:55:52;96008.78;;;13.87;100.00
54038;BME280;39954;48.844;9.726;2023-07-20T04:56:58;96003.84;;;13.96;100.00
54038;BME280;39954;48.844;9.726;2023-07-20T04:58:03;96005.84;;;13.92;100.00
54038;BME280;39954;48.844;9.726;2023-07-20T04:59:09;96012.81;;;13.92;100.00
54038;BME280;39954;48.844;9.726;2023-07-20T05:00:16;96017.00;;;13.94;100.00
54038;BME280;39954;48.844;9.726;2023-07-20T05:01:22;96017.72;;;13.96;100.00
54038;BME280;39954;48.844;9.726;2023-07-20T05:02:29;96014.91;;;13.99;100.00
54038;BME280;39954;48.844;9.726;2023-07-20T05:03:35;96020.25;;;13.98;100.00
54038;BME280;39954;48.844;9.726;2023-07-20T05:04:41;96017.50;;;13.99;100.00
54038;BME280;39954;48.844;9.726;2023-07-20T05:05:47;96016.84;;;14.08;100.00
54038;BME280;39954;48.844;9.726;2023-07-20T05:06:53;96015.78;;;14.11;100.00
54038;BME280;39954;48.844;9.726;2023-07-20T05:07:59;96011.81;;;14.18;100.00
54038;BME280;39954;48.844;9.726;2023-07-20T05:09:02;96016.19;;;14.18;100.00
54038;BME280;39954;48.844;9.726;2023-07-20T05:10:09;96015.97;;;14.21;100.00
54038;BME280;39954;48.844;9.726;2023-07-20T05:11:13;96013.88;;;14.26;100.00
54038;BME280;39954;48.844;9.726;2023-07-20T05:12:16;96014.56;;;14.28;100.00
54038;BME280;39954;48.844;9.726;2023-07-20T05:13:22;96012.69;;;14.30;100.00
54038;BME280;39954;48.844;9.726;2023-07-20T05:14:25;96022.19;;;14.31;100.00
54038;BME280;39954;48.844;9.726;2023-07-20T05:15:33;96014.16;;;14.34;100.00
54038;BME280;39954;48.844;9.726;2023-07-20T05:16:37;96015.66;;;14.37;100.00
54038;BME280;39954;48.844;9.726;2023-07-20T05:17:42;96022.47;;;14.39;100.00
54038;BME280;39954;48.844;9.726;2023-07-20T05:18:45;96015.34;;;14.41;100.00
54038;BME280;39954;48.844;9.726;2023-07-20T05:19:53;96020.47;;;14.43;100.00
54038;BME280;39954;48.844;9.726;2023-07-20T05:20:56;96009.66;;;14.47;100.00
54038;BME280;39954;48.844;9.726;2023-07-20T05:22:02;96019.59;;;14.55;100.00
54038;BME280;39954;48.844;9.726;2023-07-20T05:23:06;96019.78;;;14.65;100.00
54038;BME280;39954;48.844;9.726;2023-07-20T05:24:12;96018.09;;;14.64;100.00
54038;BME280;39954;48.844;9.726;2023-07-20T05:25:15;96021.41;;;14.66;100.00
54038;BME280;39954;48.844;9.726;2023-07-20T05:26:25;96017.75;;;14.68;100.00
54038;BME280;39954;48.844;9.726;2023-07-20T05:27:28;96013.56;;;14.66;100.00
54038;BME280;39954;48.844;9.726;2023-07-20T05:28:34;96019.31;;;14.71;100.00
54038;BME280;39954;48.844;9.726;2023-07-20T05:29:37;96007.78;;;14.73;100.00
54038;BME280;39954;48.844;9.726;2023-07-20T05:30:42;96018.84;;;14.77;100.00
54038;BME280;39954;48.844;9.726;2023-07-20T05:31:45;96014.44;;;14.77;100.00
54038;BME280;39954;48.844;9.726;2023-07-20T05:32:51;96016.59;;;14.84;100.00
54038;BME280;39954;48.844;9.726;2023-07-20T05:33:57;96009.25;;;14.89;100.00
54038;BME280;39954;48.844;9.726;2023-07-20T05:35:06;96017.44;;;14.95;100.00
54038;BME280;39954;48.844;9.726;2023-07-20T05:36:09;96018.31;;;14.96;100.00
54038;BME280;39954;48.844;9.726;2023-07-20T05:37:15;96012.94;;;14.97;100.00
54038;BME280;39954;48.844;9.726;2023-07-20T05:38:18;96016.88;;;15.03;100.00
54038;BME280;39954;48.844;9.726;2023-07-20T05:39:24;96018.19;;;15.09;100.00
54038;BME280;39954;48.844;9.726;2023-07-20T05:40:26;96016.41;;;15.09;100.00
54038;BME280;39954;48.844;9.726;2023-07-20T05:41:32;96016.16;;;15.12;100.00
54038;BME280;39954;48.844;9.726;2023-07-20T05:42:35;96015.84;;;15.17;100.00
54038;BME280;39954;48.844;9.726;2023-07-20T05:43:41;96015.13;;;15.26;100.00
54038;BME280;39954;48.844;9.726;2023-07-20T05:44:44;96015.13;;;15.26;100.00
54038;BME280;39954;48.844;9.726;2023-07-20T05:45:51;96024.75;;;15.26;100.00
54038;BME280;39954;48.844;9.726;2023-07-20T05:46:53;96013.81;;;15.32;100.00